Time;durP1;ratioP1;P1;durP2;ratioP2;P2;SDS_P1;SDS_P2;PMS_P1;PMS_P2;Temp;Humidity;BMP_temperature;BMP_pressure;BME280_temperature;BME280_humidity;BME280_pressure;Samples;Min_cycle;Max_cycle;Signal;HPM_P1;HPM_P2
2022/09/16 00:01:15;;;;;;;;;;;20.30;99.90;;;;;;5062456;28;19928;-81
2022/09/16 00:03:41;;;;;;;;;;;20.30;99.90;;;;;;5064047;28;19955;-82
2022/09/16 00:06:13;;;;;;;;;;;20.30;99.90;;;;;;5057934;28;20028;-80
2022/09/16 00:08:39;;;;;;;;;;;20.40;99.90;;;;;;5059985;28;20293;-80
2022/09/16 00:11:04;;;;;;;;;;;20.30;99.90;;;;;;5052425;28;20910;-80
2022/09/16 00:13:30;;;;;;;;;;;20.30;99.90;;;;;;5056743;28;19921;-81
2022/09/16 00:15:55;;;;;;;;;;;20.30;99.90;;;;;;5056408;28;19924;-80
2022/09/16 00:18:21;;;;;;;;;;;20.40;99.90;;;;;;5054042;28;19966;-80
2022/09/16 00:20:48;;;;;;;;;;;20.30;99.90;;;;;;5051268;28;19920;-81
2022/09/16 00:23:13;;;;;;;;;;;20.10;99.90;;;;;;5050691;28;19917;-81
2022/09/16 00:25:39;;;;;;;;;;;19.90;99.90;;;;;;5049353;28;19922;-81
2022/09/16 00:28:05;;;;;;;;;;;20.00;99.90;;;;;;5052819;28;19964;-81
2022/09/16 00:30:30;;;;;;;;;;;19.80;99.90;;;;;;5050748;28;19967;-80
2022/09/16 00:32:56;;;;;;;;;;;19.70;99.90;;;;;;5054455;28;20023;-80
2022/09/16 00:35:21;;;;;;;;;;;19.70;99.90;;;;;;5067739;28;19916;-80
2022/09/16 00:37:47;;;;;;;;;;;19.70;99.90;;;;;;5051260;28;19916;-80
2022/09/16 00:40:12;;;;;;;;;;;19.70;99.90;;;;;;5085348;27;19920;-80
2022/09/16 00:42:38;;;;;;;;;;;19.60;99.90;;;;;;5053381;28;19927;-81
2022/09/16 00:45:05;;;;;;;;;;;19.50;99.90;;;;;;5052935;28;19927;-81
2022/09/16 00:47:40;;;;;;;;;;;19.40;99.90;;;;;;5050606;28;20598;-80
2022/09/16 00:50:20;;;;;;;;;;;19.30;99.90;;;;;;5052871;28;20397;-80
2022/09/16 00:52:46;;;;;;;;;;;19.20;99.90;;;;;;5050957;28;20227;-80
2022/09/16 00:55:17;;;;;;;;;;;19.20;99.90;;;;;;5052687;28;20464;-81
2022/09/16 00:57:43;;;;;;;;;;;19.30;99.90;;;;;;5052983;28;19917;-80
2022/09/16 01:00:12;;;;;;;;;;;19.30;99.90;;;;;;5056184;28;20011;-80
2022/09/16 01:02:38;;;;;;;;;;;19.50;99.90;;;;;;5061926;28;20616;-81
2022/09/16 01:05:05;;;;;;;;;;;19.60;99.90;;;;;;5080606;28;20754;-80
2022/09/16 01:07:38;;;;;;;;;;;19.70;99.90;;;;;;5056213;28;21810;-80
2022/09/16 01:10:05;;;;;;;;;;;19.60;99.90;;;;;;5056347;28;21584;-81
2022/09/16 01:12:31;;;;;;;;;;;19.50;99.90;;;;;;5058486;28;19982;-80
2022/09/16 01:14:57;;;;;;;;;;;19.40;99.90;;;;;;5050463;28;19920;-80
2022/09/16 01:17:41;;;;;;;;;;;19.50;99.90;;;;;;5057692;28;19912;-82
2022/09/16 01:20:25;;;;;;;;;;;19.50;99.90;;;;;;5054741;28;19951;-80
2022/09/16 01:23:09;;;;;;;;;;;19.40;99.90;;;;;;5064273;28;19912;-81
2022/09/16 01:25:54;;;;;;;;;;;19.50;99.90;;;;;;5060044;28;20293;-80
2022/09/16 01:28:22;;;;;;;;;;;19.50;99.90;;;;;;5053229;28;20013;-80
2022/09/16 01:30:56;;;;;;;;;;;19.40;99.90;;;;;;5048605;28;20290;-81
2022/09/16 01:33:33;;;;;;;;;;;19.30;99.90;;;;;;5080601;27;20115;-80
2022/09/16 01:36:10;;;;;;;;;;;19.30;99.90;;;;;;5050111;28;19939;-80
2022/09/16 01:38:54;;;;;;;;;;;19.40;99.90;;;;;;5051312;28;20018;-80
2022/09/16 01:41:19;;;;;;;;;;;19.50;99.90;;;;;;5050911;28;19921;-80
2022/09/16 01:43:53;;;;;;;;;;;19.50;99.90;;;;;;5048716;28;20700;-80
2022/09/16 01:46:45;;;;;;;;;;;19.40;99.90;;;;;;5045112;28;19923;-80
2022/09/16 01:49:11;;;;;;;;;;;19.50;99.90;;;;;;5048808;28;19924;-80
2022/09/16 01:51:41;;;;;;;;;;;19.40;99.90;;;;;;5049481;28;19944;-79
2022/09/16 01:54:09;;;;;;;;;;;19.40;99.90;;;;;;5049382;28;19921;-81
2022/09/16 01:56:43;;;;;;;;;;;19.50;99.90;;;;;;5049334;28;19920;-80
2022/09/16 01:59:32;;;;;;;;;;;19.50;99.90;;;;;;5048540;28;19963;-80
2022/09/16 02:02:17;;;;;;;;;;;19.50;99.90;;;;;;5051643;28;19924;-80
2022/09/16 02:04:46;;;;;;;;;;;19.30;99.90;;;;;;5066839;28;19917;-81
2022/09/16 02:07:14;;;;;;;;;;;19.10;99.90;;;;;;5049370;28;19921;-79
2022/09/16 02:09:42;;;;;;;;;;;19.00;99.90;;;;;;5050582;28;19978;-79
2022/09/16 02:12:10;;;;;;;;;;;19.00;99.90;;;;;;5047481;28;19974;-80
2022/09/16 02:14:39;;;;;;;;;;;19.00;99.90;;;;;;5049198;28;19920;-81
2022/09/16 02:17:07;;;;;;;;;;;19.00;99.90;;;;;;5050456;28;19917;-80
2022/09/16 02:19:35;;;;;;;;;;;19.00;99.90;;;;;;5050148;28;20393;-80
2022/09/16 02:22:03;;;;;;;;;;;19.00;99.90;;;;;;5050668;28;19931;-80
2022/09/16 02:24:30;;;;;;;;;;;18.90;99.90;;;;;;5049962;28;19924;-80
2022/09/16 02:27:01;;;;;;;;;;;18.90;99.90;;;;;;5080459;27;19978;-80
2022/09/16 02:29:33;;;;;;;;;;;18.80;99.90;;;;;;5048128;28;19929;-80
2022/09/16 02:32:00;;;;;;;;;;;18.90;99.90;;;;;;5051398;28;19920;-80
2022/09/16 02:34:35;;;;;;;;;;;18.90;99.90;;;;;;5053477;28;19927;-81
2022/09/16 02:37:04;;;;;;;;;;;18.80;99.90;;;;;;5049369;28;19924;-80
2022/09/16 02:39:31;;;;;;;;;;;18.90;99.90;;;;;;5048749;28;19971;-80
2022/09/16 02:41:58;;;;;;;;;;;18.70;99.90;;;;;;5055417;28;20527;-80
2022/09/16 02:44:24;;;;;;;;;;;18.90;99.90;;;;;;5051366;28;19947;-79
2022/09/16 02:47:00;;;;;;;;;;;19.00;99.90;;;;;;5042402;28;19917;-81
2022/09/16 02:49:28;;;;;;;;;;;18.90;99.90;;;;;;5081341;28;19925;-79
2022/09/16 02:51:59;;;;;;;;;;;19.00;99.90;;;;;;5049351;28;19943;-81
2022/09/16 02:54:25;;;;;;;;;;;18.90;99.90;;;;;;5084630;28;19916;-80
2022/09/16 02:56:53;;;;;;;;;;;18.70;99.90;;;;;;5051118;28;19932;-80
2022/09/16 02:59:19;;;;;;;;;;;18.60;99.90;;;;;;5053881;28;19943;-79
2022/09/16 03:01:45;;;;;;;;;;;18.60;99.90;;;;;;5051169;28;19995;-81
2022/09/16 03:04:13;;;;;;;;;;;18.40;99.90;;;;;;5059909;28;19923;-80
2022/09/16 03:06:38;;;;;;;;;;;18.30;99.90;;;;;;5048215;28;20004;-80
2022/09/16 03:09:05;;;;;;;;;;;18.30;99.90;;;;;;5053376;28;20293;-81
2022/09/16 03:11:34;;;;;;;;;;;18.10;99.90;;;;;;5054165;28;20744;-80
2022/09/16 03:14:09;;;;;;;;;;;17.90;99.90;;;;;;5077235;28;19912;-80
2022/09/16 03:16:59;;;;;;;;;;;17.90;99.90;;;;;;5067381;28;19939;-80
2022/09/16 03:19:38;;;;;;;;;;;18.00;99.90;;;;;;5053491;28;19916;-80
2022/09/16 03:22:16;;;;;;;;;;;17.90;99.90;;;;;;5052341;28;19921;-80
2022/09/16 03:25:01;;;;;;;;;;;17.70;99.90;;;;;;5056361;28;19932;-80
2022/09/16 03:27:33;;;;;;;;;;;17.50;99.90;;;;;;5058157;28;19920;-80
2022/09/16 03:30:03;;;;;;;;;;;17.50;99.90;;;;;;5069074;28;20065;-80
2022/09/16 03:32:31;;;;;;;;;;;17.50;99.90;;;;;;5055077;28;20514;-80
2022/09/16 03:34:56;;;;;;;;;;;17.50;99.90;;;;;;5055540;28;19928;-80
2022/09/16 03:37:23;;;;;;;;;;;17.30;99.90;;;;;;5056012;28;19921;-80
2022/09/16 03:39:54;;;;;;;;;;;17.40;99.90;;;;;;5057637;28;20405;-80
2022/09/16 03:42:20;;;;;;;;;;;17.20;99.90;;;;;;5065028;28;19923;-79
2022/09/16 03:44:45;;;;;;;;;;;17.20;99.90;;;;;;5068166;28;19924;-80
2022/09/16 03:47:11;;;;;;;;;;;17.30;99.90;;;;;;5050958;28;19977;-80
2022/09/16 03:49:37;;;;;;;;;;;17.20;99.90;;;;;;5057157;28;19925;-80
2022/09/16 03:52:07;;;;;;;;;;;17.30;99.90;;;;;;5053407;28;19917;-80
2022/09/16 03:54:33;;;;;;;;;;;17.30;99.90;;;;;;5055697;28;20027;-80
2022/09/16 03:56:59;;;;;;;;;;;17.30;99.90;;;;;;5051562;28;20617;-80
2022/09/16 03:59:25;;;;;;;;;;;17.30;99.90;;;;;;5071761;28;19912;-80
2022/09/16 04:01:51;;;;;;;;;;;17.20;99.90;;;;;;5063714;28;19948;-81
2022/09/16 04:04:16;;;;;;;;;;;17.10;99.90;;;;;;5062040;28;19959;-80
2022/09/16 04:06:42;;;;;;;;;;;16.90;99.90;;;;;;5066253;28;19925;-80
2022/09/16 04:09:11;;;;;;;;;;;17.00;99.90;;;;;;5052458;28;20063;-80
2022/09/16 04:11:36;;;;;;;;;;;16.90;99.90;;;;;;5055543;28;19924;-79
2022/09/16 04:14:02;;;;;;;;;;;16.80;99.90;;;;;;5058745;28;20298;-80
2022/09/16 04:16:28;;;;;;;;;;;17.00;99.90;;;;;;5065824;28;19924;-80
2022/09/16 04:18:53;;;;;;;;;;;17.10;99.90;;;;;;5058725;28;19936;-80
2022/09/16 04:21:19;;;;;;;;;;;17.10;99.90;;;;;;5068358;28;19923;-80
2022/09/16 04:23:44;;;;;;;;;;;17.00;99.90;;;;;;5052601;28;19920;-80
2022/09/16 04:26:10;;;;;;;;;;;17.00;99.90;;;;;;5087367;27;19942;-80
2022/09/16 04:28:36;;;;;;;;;;;17.00;99.90;;;;;;5055961;28;19924;-80
2022/09/16 04:31:03;;;;;;;;;;;17.10;99.90;;;;;;5057567;28;19916;-80
2022/09/16 04:33:29;;;;;;;;;;;17.00;99.90;;;;;;5051830;28;19923;-79
2022/09/16 04:36:00;;;;;;;;;;;16.90;99.90;;;;;;5053732;28;19983;-80
2022/09/16 04:38:26;;;;;;;;;;;16.80;99.90;;;;;;5055884;28;19977;-80
2022/09/16 04:40:53;;;;;;;;;;;16.70;99.90;;;;;;5061542;28;19916;-80
2022/09/16 04:43:18;;;;;;;;;;;16.80;99.90;;;;;;5061450;28;19951;-79
2022/09/16 04:45:44;;;;;;;;;;;16.70;99.90;;;;;;5059146;28;20327;-79
2022/09/16 04:48:09;;;;;;;;;;;16.70;99.90;;;;;;5092233;27;20487;-79
2022/09/16 04:50:35;;;;;;;;;;;17.10;99.90;;;;;;5066385;28;20011;-80
2022/09/16 04:53:00;;;;;;;;;;;17.20;99.90;;;;;;5068040;28;19916;-80
2022/09/16 04:55:26;;;;;;;;;;;17.40;99.90;;;;;;5076082;28;19963;-79
2022/09/16 04:57:51;;;;;;;;;;;17.40;99.90;;;;;;5073728;28;20556;-79
2022/09/16 05:00:17;;;;;;;;;;;17.30;99.90;;;;;;5071165;28;19928;-79
2022/09/16 05:02:44;;;;;;;;;;;17.10;99.90;;;;;;5068567;28;19995;-80
2022/09/16 05:05:10;;;;;;;;;;;17.00;99.90;;;;;;5064373;28;20456;-79
2022/09/16 05:07:36;;;;;;;;;;;16.90;99.90;;;;;;5064233;28;19913;-79
2022/09/16 05:10:02;;;;;;;;;;;16.80;99.90;;;;;;5065212;28;19923;-79
2022/09/16 05:12:27;;;;;;;;;;;16.80;99.90;;;;;;5064441;28;19917;-79
2022/09/16 05:14:53;;;;;;;;;;;16.80;99.90;;;;;;5064462;28;19920;-79
2022/09/16 05:17:19;;;;;;;;;;;16.80;99.90;;;;;;5082944;28;19958;-78
2022/09/16 05:19:44;;;;;;;;;;;16.70;99.90;;;;;;5053222;28;19970;-80
2022/09/16 05:22:10;;;;;;;;;;;16.70;99.90;;;;;;5064418;28;19969;-79
2022/09/16 05:24:35;;;;;;;;;;;16.60;99.90;;;;;;5096519;28;19913;-79
2022/09/16 05:27:01;;;;;;;;;;;16.50;99.90;;;;;;5067984;28;20282;-79
2022/09/16 05:29:26;;;;;;;;;;;16.50;99.90;;;;;;5073477;28;19923;-80
2022/09/16 05:31:52;;;;;;;;;;;16.60;99.90;;;;;;5067016;28;20008;-80
2022/09/16 05:34:22;;;;;;;;;;;16.50;99.90;;;;;;5063458;28;19916;-80
2022/09/16 05:36:48;;;;;;;;;;;16.50;99.90;;;;;;5063517;28;19916;-79
2022/09/16 05:39:17;;;;;;;;;;;16.60;99.90;;;;;;5064666;28;20817;-80
2022/09/16 05:41:43;;;;;;;;;;;16.60;99.90;;;;;;5064013;28;19912;-80
2022/09/16 05:44:08;;;;;;;;;;;17.00;99.90;;;;;;5062941;28;19912;-79
2022/09/16 05:46:34;;;;;;;;;;;17.10;99.90;;;;;;5096200;28;19912;-80
2022/09/16 05:48:59;;;;;;;;;;;16.90;99.90;;;;;;5083646;28;20775;-78
2022/09/16 05:51:25;;;;;;;;;;;16.90;99.90;;;;;;5084403;28;19922;-80
2022/09/16 05:53:52;;;;;;;;;;;16.90;99.90;;;;;;5070669;28;19923;-80
2022/09/16 05:56:17;;;;;;;;;;;17.00;99.90;;;;;;5072702;28;19924;-81
2022/09/16 05:58:43;;;;;;;;;;;16.90;99.90;;;;;;5084698;28;19919;-81
2022/09/16 06:01:10;;;;;;;;;;;17.40;99.90;;;;;;5084199;28;19928;-82
2022/09/16 06:03:37;;;;;;;;;;;18.20;99.90;;;;;;5084090;28;19912;-81
2022/09/16 06:06:04;;;;;;;;;;;18.70;99.90;;;;;;5083002;28;20418;-82
2022/09/16 06:08:31;;;;;;;;;;;19.00;99.90;;;;;;5084031;28;20009;-81
2022/09/16 06:10:59;;;;;;;;;;;19.30;99.90;;;;;;5080638;28;19998;-82
2022/09/16 06:13:24;;;;;;;;;;;19.60;99.90;;;;;;5080926;28;20003;-81
2022/09/16 06:15:52;;;;;;;;;;;19.90;99.90;;;;;;5083998;28;20002;-82
2022/09/16 06:18:18;;;;;;;;;;;20.10;99.90;;;;;;5078862;28;19925;-81
2022/09/16 06:20:44;;;;;;;;;;;20.40;99.90;;;;;;5061716;28;19921;-82
2022/09/16 06:23:10;;;;;;;;;;;20.70;99.90;;;;;;5080592;28;20002;-82
2022/09/16 06:25:36;;;;;;;;;;;21.00;99.90;;;;;;5080895;28;20839;-82
2022/09/16 06:28:02;;;;;;;;;;;21.10;99.90;;;;;;5073966;28;19926;-82
2022/09/16 06:30:28;;;;;;;;;;;21.60;99.90;;;;;;5084285;28;19912;-82
2022/09/16 06:32:53;;;;;;;;;;;21.70;99.90;;;;;;5084032;28;19918;-81
2022/09/16 06:35:19;;;;;;;;;;;21.90;99.90;;;;;;5083818;28;19934;-82
2022/09/16 06:37:44;;;;;;;;;;;22.20;99.90;;;;;;5084000;28;19966;-82
2022/09/16 06:40:10;;;;;;;;;;;22.40;99.90;;;;;;5083515;28;20064;-82
2022/09/16 06:42:35;;;;;;;;;;;22.50;99.90;;;;;;5073851;28;19924;-81
2022/09/16 06:45:03;;;;;;;;;;;22.80;99.90;;;;;;5063471;28;19924;-82
2022/09/16 06:47:32;;;;;;;;;;;23.00;99.90;;;;;;5063778;28;19954;-83
2022/09/16 06:50:00;;;;;;;;;;;23.30;99.90;;;;;;5063644;28;19961;-82
2022/09/16 06:52:26;;;;;;;;;;;23.40;99.90;;;;;;5062495;28;19913;-82
2022/09/16 06:54:52;;;;;;;;;;;23.90;99.90;;;;;;5066352;28;20381;-82
2022/09/16 06:57:19;;;;;;;;;;;24.10;99.90;;;;;;5066270;28;19969;-82
2022/09/16 06:59:45;;;;;;;;;;;24.30;99.90;;;;;;5067673;28;19928;-82
2022/09/16 07:02:10;;;;;;;;;;;24.70;99.90;;;;;;5067140;28;19913;-83
2022/09/16 07:04:36;;;;;;;;;;;24.90;99.90;;;;;;5067487;28;19912;-83
2022/09/16 07:07:02;;;;;;;;;;;25.30;99.90;;;;;;5067157;28;19913;-82
2022/09/16 07:09:28;;;;;;;;;;;24.70;99.90;;;;;;5066829;28;20456;-82
2022/09/16 07:11:54;;;;;;;;;;;23.70;99.90;;;;;;5081892;28;19920;-82
2022/09/16 07:14:19;;;;;;;;;;;24.40;99.90;;;;;;5067375;28;20370;-82
2022/09/16 07:16:45;;;;;;;;;;;23.30;99.90;;;;;;5067084;28;19912;-82
2022/09/16 07:19:11;;;;;;;;;;;22.60;99.90;;;;;;5067362;28;20365;-83
2022/09/16 07:21:36;;;;;;;;;;;24.00;99.90;;;;;;5067491;28;19913;-83
2022/09/16 07:24:02;;;;;;;;;;;25.00;99.90;;;;;;5066805;28;20370;-83
2022/09/16 07:26:29;;;;;;;;;;;24.10;99.90;;;;;;5067362;28;19917;-81
2022/09/16 07:28:57;;;;;;;;;;;25.40;99.90;;;;;;5067407;28;19920;-82
2022/09/16 07:31:24;;;;;;;;;;;25.70;99.90;;;;;;5067093;28;20020;-82
2022/09/16 07:33:50;;;;;;;;;;;25.60;99.90;;;;;;5066647;28;19920;-82
2022/09/16 07:36:17;;;;;;;;;;;26.30;98.80;;;;;;5066891;28;20662;-82
2022/09/16 07:38:43;;;;;;;;;;;23.90;99.90;;;;;;5066269;28;20381;-82
2022/09/16 07:41:10;;;;;;;;;;;23.20;99.90;;;;;;5067025;28;19912;-82
2022/09/16 07:43:36;;;;;;;;;;;22.30;99.90;;;;;;5048034;28;19999;-82
2022/09/16 07:46:02;;;;;;;;;;;21.70;99.90;;;;;;5046831;28;19999;-82
2022/09/16 07:48:28;;;;;;;;;;;21.30;99.90;;;;;;5046705;28;20532;-82
2022/09/16 07:50:57;;;;;;;;;;;21.00;99.90;;;;;;5046613;28;19944;-81
2022/09/16 07:53:23;;;;;;;;;;;21.10;99.90;;;;;;5045465;28;20007;-82
2022/09/16 07:55:49;;;;;;;;;;;21.10;99.90;;;;;;5046319;28;19912;-82
2022/09/16 07:58:14;;;;;;;;;;;21.70;99.90;;;;;;5046248;28;19975;-82
2022/09/16 08:00:42;;;;;;;;;;;25.00;99.90;;;;;;5060605;28;19994;-82
2022/09/16 08:03:07;;;;;;;;;;;26.80;99.40;;;;;;5066331;28;19923;-82
2022/09/16 08:05:32;;;;;;;;;;;27.60;96.60;;;;;;5066389;28;19913;-83
2022/09/16 08:07:58;;;;;;;;;;;28.10;95.20;;;;;;5098953;28;19931;-82
2022/09/16 08:10:23;;;;;;;;;;;28.50;94.00;;;;;;5066414;28;20366;-82
2022/09/16 08:12:50;;;;;;;;;;;29.20;92.40;;;;;;5064706;28;19958;-82
2022/09/16 08:15:15;;;;;;;;;;;29.20;91.70;;;;;;5066624;28;19912;-83
2022/09/16 08:17:41;;;;;;;;;;;29.50;91.10;;;;;;5064800;28;20393;-83
2022/09/16 08:20:06;;;;;;;;;;;29.10;90.50;;;;;;5066000;28;19913;-82
2022/09/16 08:22:32;;;;;;;;;;;27.40;93.70;;;;;;5066112;28;19956;-83
2022/09/16 08:24:58;;;;;;;;;;;26.80;93.10;;;;;;5066041;28;19931;-82
2022/09/16 08:27:23;;;;;;;;;;;27.60;92.60;;;;;;5066010;28;19917;-83
2022/09/16 08:29:49;;;;;;;;;;;28.20;91.20;;;;;;5065952;28;20375;-82
2022/09/16 08:32:14;;;;;;;;;;;29.20;90.00;;;;;;5064179;28;19912;-82
2022/09/16 08:34:40;;;;;;;;;;;28.50;88.70;;;;;;5065471;28;19912;-83
2022/09/16 08:37:05;;;;;;;;;;;29.50;85.50;;;;;;5065474;28;19952;-82
2022/09/16 08:39:31;;;;;;;;;;;30.20;85.20;;;;;;5065484;28;19917;-82
2022/09/16 08:42:04;;;;;;;;;;;30.30;84.50;;;;;;5065035;28;19951;-83
2022/09/16 08:44:42;;;;;;;;;;;30.40;85.80;;;;;;5065936;28;20004;-82
2022/09/16 08:47:26;;;;;;;;;;;30.70;83.10;;;;;;5065647;28;19913;-83
2022/09/16 08:49:53;;;;;;;;;;;29.90;83.70;;;;;;5064941;28;20580;-82
2022/09/16 08:52:28;;;;;;;;;;;30.20;82.90;;;;;;5065334;28;20340;-83
2022/09/16 08:55:00;;;;;;;;;;;29.00;84.70;;;;;;5065410;28;19920;-82
2022/09/16 08:57:27;;;;;;;;;;;28.20;83.10;;;;;;5065480;28;19913;-83
2022/09/16 08:59:54;;;;;;;;;;;27.40;87.10;;;;;;5065709;28;19935;-83
2022/09/16 09:02:22;;;;;;;;;;;27.00;86.20;;;;;;5064635;28;19912;-82
2022/09/16 09:04:48;;;;;;;;;;;26.50;89.80;;;;;;5064862;28;19913;-83
2022/09/16 09:07:23;;;;;;;;;;;25.40;91.90;;;;;;5065267;28;19920;-82
2022/09/16 09:09:49;;;;;;;;;;;25.30;92.50;;;;;;5064989;28;19920;-83
2022/09/16 09:12:23;;;;;;;;;;;25.30;93.30;;;;;;5064753;28;20262;-83
2022/09/16 09:14:57;;;;;;;;;;;25.90;92.80;;;;;;5064626;28;20740;-82
2022/09/16 09:17:29;;;;;;;;;;;25.90;90.50;;;;;;5064233;28;20003;-83
2022/09/16 09:19:54;;;;;;;;;;;26.10;92.10;;;;;;5079522;28;20286;-82
2022/09/16 09:22:23;;;;;;;;;;;25.90;92.50;;;;;;5064419;28;19919;-82
2022/09/16 09:24:58;;;;;;;;;;;25.30;92.40;;;;;;5064665;28;19913;-82
2022/09/16 09:27:35;;;;;;;;;;;28.10;92.00;;;;;;5079912;28;19958;-83
2022/09/16 09:30:10;;;;;;;;;;;27.70;87.90;;;;;;5064659;28;19971;-82
2022/09/16 09:32:43;;;;;;;;;;;25.60;91.50;;;;;;5064510;28;19928;-83
2022/09/16 09:35:28;;;;;;;;;;;24.80;94.10;;;;;;5064700;28;20316;-82
2022/09/16 09:38:06;;;;;;;;;;;27.30;91.70;;;;;;5064725;28;19956;-82
2022/09/16 09:40:36;;;;;;;;;;;27.10;88.40;;;;;;5046538;28;19913;-82
2022/09/16 09:43:12;;;;;;;;;;;30.10;84.30;;;;;;5050948;28;19995;-82
2022/09/16 09:45:41;;;;;;;;;;;29.10;82.30;;;;;;5044348;28;19920;-82
2022/09/16 09:48:10;;;;;;;;;;;28.20;83.10;;;;;;5044084;28;19939;-82
2022/09/16 09:50:40;;;;;;;;;;;28.00;83.70;;;;;;5059549;28;19920;-82
2022/09/16 09:53:12;;;;;;;;;;;27.50;84.50;;;;;;5043156;28;19917;-83
2022/09/16 09:55:39;;;;;;;;;;;26.30;86.80;;;;;;5044010;28;19920;-82
2022/09/16 09:58:13;;;;;;;;;;;25.20;88.00;;;;;;5044395;28;19913;-82
2022/09/16 10:00:38;;;;;;;;;;;24.80;89.70;;;;;;5058373;28;20675;-83
2022/09/16 10:03:06;;;;;;;;;;;25.00;90.00;;;;;;5063730;28;19912;-83
2022/09/16 10:05:32;;;;;;;;;;;24.90;89.00;;;;;;5064395;28;20024;-82
2022/09/16 10:08:01;;;;;;;;;;;25.10;88.00;;;;;;5064206;28;20274;-82
2022/09/16 10:10:28;;;;;;;;;;;25.20;86.10;;;;;;5063940;28;19963;-83
2022/09/16 10:12:54;;;;;;;;;;;24.40;86.40;;;;;;5063880;28;19912;-82
2022/09/16 10:15:21;;;;;;;;;;;23.90;90.00;;;;;;5062896;28;19926;-82
2022/09/16 10:17:48;;;;;;;;;;;23.70;90.30;;;;;;5063575;28;19912;-82
2022/09/16 10:20:22;;;;;;;;;;;23.70;90.40;;;;;;5063861;28;20366;-81
2022/09/16 10:23:14;;;;;;;;;;;24.00;90.60;;;;;;5063391;28;20011;-81
2022/09/16 10:25:40;;;;;;;;;;;24.60;89.50;;;;;;5062296;28;19995;-82
2022/09/16 10:28:17;;;;;;;;;;;25.50;82.50;;;;;;5061063;28;19989;-82
2022/09/16 10:30:54;;;;;;;;;;;26.40;82.80;;;;;;5063810;28;20749;-83
2022/09/16 10:33:42;;;;;;;;;;;25.50;82.20;;;;;;5063525;28;19924;-83
2022/09/16 10:36:09;;;;;;;;;;;25.30;82.70;;;;;;5060834;28;19920;-82
2022/09/16 10:38:34;;;;;;;;;;;24.90;82.20;;;;;;5063531;28;19917;-82
2022/09/16 10:41:05;;;;;;;;;;;24.70;79.30;;;;;;5063881;28;20924;-82
2022/09/16 10:43:30;;;;;;;;;;;24.80;81.50;;;;;;5063743;28;20464;-83
2022/09/16 10:45:56;;;;;;;;;;;24.60;82.10;;;;;;5063578;28;19913;-82
2022/09/16 10:48:24;;;;;;;;;;;24.70;82.40;;;;;;5063651;28;19940;-82
2022/09/16 10:50:52;;;;;;;;;;;24.50;82.00;;;;;;5061967;28;19913;-82
2022/09/16 10:53:31;;;;;;;;;;;24.50;84.10;;;;;;5061972;28;20484;-82
2022/09/16 10:55:57;;;;;;;;;;;24.80;83.20;;;;;;5063645;28;19920;-82
2022/09/16 10:58:23;;;;;;;;;;;25.00;84.60;;;;;;5063657;28;19939;-82
2022/09/16 11:01:24;;;;;;;;;;;25.10;84.40;;;;;;5062699;28;20317;-82
2022/09/16 11:04:08;;;;;;;;;;;25.30;79.30;;;;;;5000563;28;19913;-83
2022/09/16 11:07:06;;;;;;;;;;;25.50;81.50;;;;;;5000505;28;19943;-82
2022/09/16 11:09:34;;;;;;;;;;;25.50;81.10;;;;;;4960299;28;19922;-83
2022/09/16 11:12:05;;;;;;;;;;;25.00;77.80;;;;;;4941627;28;19934;-78
2022/09/16 11:14:37;;;;;;;;;;;25.10;79.40;;;;;;4940491;29;19922;-82
2022/09/16 11:17:05;;;;;;;;;;;25.20;79.90;;;;;;4941063;29;20458;-80
2022/09/16 11:19:39;;;;;;;;;;;25.40;77.40;;;;;;4940652;29;19922;-81
2022/09/16 11:22:20;;;;;;;;;;;25.70;78.00;;;;;;4942216;29;19965;-79
2022/09/16 11:24:45;;;;;;;;;;;25.40;76.40;;;;;;4942177;29;19973;-79
2022/09/16 11:27:21;;;;;;;;;;;25.30;75.90;;;;;;4941025;29;19919;-80
2022/09/16 11:30:01;;;;;;;;;;;25.10;76.90;;;;;;4940183;28;20827;-80
2022/09/16 11:32:45;;;;;;;;;;;24.90;75.80;;;;;;4938585;29;20300;-80
2022/09/16 11:35:16;;;;;;;;;;;24.50;75.10;;;;;;4939230;28;20766;-80
2022/09/16 11:37:47;;;;;;;;;;;24.60;76.10;;;;;;4955408;28;20942;-81
2022/09/16 11:40:18;;;;;;;;;;;24.90;78.50;;;;;;4977829;28;19949;-81
2022/09/16 11:42:50;;;;;;;;;;;25.30;78.70;;;;;;4995737;28;19914;-81
2022/09/16 11:45:25;;;;;;;;;;;25.10;76.60;;;;;;5020684;28;19920;-81
2022/09/16 11:48:09;;;;;;;;;;;24.80;75.70;;;;;;5040730;28;19921;-80
2022/09/16 11:50:55;;;;;;;;;;;24.60;76.30;;;;;;5045309;28;19917;-80
2022/09/16 11:53:26;;;;;;;;;;;24.60;78.60;;;;;;5044479;28;19939;-80
2022/09/16 11:56:27;;;;;;;;;;;24.40;78.70;;;;;;5025588;28;19941;-80
2022/09/16 11:58:55;;;;;;;;;;;24.70;80.10;;;;;;5002870;28;19960;-80
2022/09/16 12:01:20;;;;;;;;;;;24.20;81.90;;;;;;5022935;28;19967;-80
2022/09/16 12:03:54;;;;;;;;;;;24.20;80.70;;;;;;5022684;28;20055;-80
2022/09/16 12:06:22;;;;;;;;;;;24.00;80.20;;;;;;5022812;28;19996;-80
2022/09/16 12:09:03;;;;;;;;;;;24.50;80.60;;;;;;5024486;28;20302;-80
2022/09/16 12:11:38;;;;;;;;;;;24.40;78.70;;;;;;5029721;28;19927;-80
2022/09/16 12:14:35;;;;;;;;;;;24.50;79.90;;;;;;5030721;28;19913;-80
2022/09/16 12:17:21;;;;;;;;;;;24.30;79.20;;;;;;5020011;28;20472;-80
2022/09/16 12:19:53;;;;;;;;;;;24.40;76.40;;;;;;5021647;28;19924;-79
2022/09/16 12:22:21;;;;;;;;;;;24.80;77.10;;;;;;5021832;28;19917;-81
2022/09/16 12:24:54;;;;;;;;;;;25.10;76.80;;;;;;5022504;28;19917;-80
2022/09/16 12:27:25;;;;;;;;;;;25.40;77.70;;;;;;5021358;28;19926;-81
2022/09/16 12:29:55;;;;;;;;;;;25.80;79.50;;;;;;5008707;28;20035;-80
2022/09/16 12:32:26;;;;;;;;;;;26.10;79.00;;;;;;5013638;28;19917;-80
2022/09/16 12:34:55;;;;;;;;;;;25.50;78.70;;;;;;5042769;28;19917;-80
2022/09/16 12:37:26;;;;;;;;;;;25.10;78.20;;;;;;5034380;28;20835;-80
2022/09/16 12:39:52;;;;;;;;;;;24.40;76.80;;;;;;5022527;28;20087;-80
2022/09/16 12:42:33;;;;;;;;;;;24.20;77.60;;;;;;5021638;28;20683;-80
2022/09/16 12:45:19;;;;;;;;;;;24.30;77.00;;;;;;5029452;28;19917;-79
2022/09/16 12:47:44;;;;;;;;;;;24.60;81.30;;;;;;5015521;28;19917;-80
2022/09/16 12:50:19;;;;;;;;;;;24.70;79.20;;;;;;5019676;28;20734;-80
2022/09/16 12:52:56;;;;;;;;;;;24.80;79.30;;;;;;5049068;28;19913;-80
2022/09/16 12:55:24;;;;;;;;;;;24.70;80.40;;;;;;5044306;28;20744;-81
2022/09/16 12:57:59;;;;;;;;;;;24.50;77.40;;;;;;5060369;28;19956;-80
2022/09/16 13:00:35;;;;;;;;;;;24.60;77.30;;;;;;5074126;28;19931;-80
2022/09/16 13:03:06;;;;;;;;;;;24.90;77.00;;;;;;5069251;28;20446;-80
2022/09/16 13:05:36;;;;;;;;;;;24.70;77.50;;;;;;5057759;28;19921;-80
2022/09/16 13:08:03;;;;;;;;;;;24.40;75.60;;;;;;5042972;28;20377;-80
2022/09/16 13:10:34;;;;;;;;;;;24.30;74.70;;;;;;5043158;28;20576;-80
2022/09/16 13:13:00;;;;;;;;;;;24.70;79.20;;;;;;5043030;28;19948;-80
2022/09/16 13:15:28;;;;;;;;;;;24.60;75.70;;;;;;5044218;28;19917;-80
2022/09/16 13:17:54;;;;;;;;;;;24.60;75.10;;;;;;5042932;28;20338;-81
2022/09/16 13:20:32;;;;;;;;;;;24.70;76.20;;;;;;5075573;28;20035;-79
2022/09/16 13:23:04;;;;;;;;;;;24.60;76.30;;;;;;5041143;28;19921;-80
2022/09/16 13:25:32;;;;;;;;;;;23.90;77.30;;;;;;5042865;28;19913;-79
2022/09/16 13:28:02;;;;;;;;;;;23.90;77.20;;;;;;5042682;28;19985;-80
2022/09/16 13:30:30;;;;;;;;;;;23.50;74.20;;;;;;5043631;28;19916;-80
2022/09/16 13:33:20;;;;;;;;;;;23.80;76.00;;;;;;5061941;28;19917;-80
2022/09/16 13:35:48;;;;;;;;;;;24.10;74.80;;;;;;5061128;28;19913;-81
2022/09/16 13:38:13;;;;;;;;;;;24.20;74.30;;;;;;5063704;28;19916;-80
2022/09/16 13:40:40;;;;;;;;;;;24.10;73.70;;;;;;5064160;28;19945;-80
2022/09/16 13:43:08;;;;;;;;;;;23.70;74.10;;;;;;5064333;28;19912;-80
2022/09/16 13:45:38;;;;;;;;;;;23.50;75.10;;;;;;5063481;28;19916;-80
2022/09/16 13:48:14;;;;;;;;;;;23.40;75.80;;;;;;5062793;28;19916;-79
2022/09/16 13:50:42;;;;;;;;;;;23.50;78.90;;;;;;5044579;28;19917;-80
2022/09/16 13:53:09;;;;;;;;;;;23.30;76.60;;;;;;5043095;28;19921;-80
2022/09/16 13:55:36;;;;;;;;;;;23.60;77.10;;;;;;5042063;28;20385;-80
2022/09/16 13:58:05;;;;;;;;;;;23.70;76.10;;;;;;5042180;28;19979;-80
2022/09/16 14:00:36;;;;;;;;;;;23.80;75.90;;;;;;5042101;28;20057;-79
2022/09/16 14:03:11;;;;;;;;;;;23.80;75.70;;;;;;5047899;28;20042;-80
2022/09/16 14:05:51;;;;;;;;;;;24.00;74.00;;;;;;5060900;28;19917;-80
2022/09/16 14:08:56;;;;;;;;;;;23.80;71.50;;;;;;5062379;28;19966;-79
2022/09/16 14:11:37;;;;;;;;;;;23.60;74.10;;;;;;5040306;28;19916;-80
2022/09/16 14:14:05;;;;;;;;;;;23.30;73.00;;;;;;5026183;28;19913;-81
2022/09/16 14:16:31;;;;;;;;;;;23.10;74.30;;;;;;5057727;28;19924;-81
2022/09/16 14:19:13;;;;;;;;;;;23.00;71.50;;;;;;5032559;28;19912;-80
2022/09/16 14:21:39;;;;;;;;;;;23.00;71.90;;;;;;5039263;28;19966;-81
2022/09/16 14:24:15;;;;;;;;;;;22.90;70.90;;;;;;5030326;28;20441;-81
2022/09/16 14:26:54;;;;;;;;;;;22.90;72.10;;;;;;5020485;28;20429;-83
2022/09/16 14:29:20;;;;;;;;;;;23.00;71.00;;;;;;5026023;28;20524;-82
2022/09/16 14:31:46;;;;;;;;;;;22.90;69.20;;;;;;5042351;28;19917;-81